sensor_id;sensor_type;location;lat;lon;timestamp;P1;durP1;ratioP1;P2;durP2;ratioP2
38023;SDS011;23834;48.080;11.682;2023-03-01T00:02:09;8.73;;;7.93;;
38023;SDS011;23834;48.080;11.682;2023-03-01T00:04:34;8.10;;;7.40;;
38023;SDS011;23834;48.080;11.682;2023-03-01T00:07:01;7.97;;;7.27;;
38023;SDS011;23834;48.080;11.682;2023-03-01T00:09:26;8.73;;;7.83;;
38023;SDS011;23834;48.080;11.682;2023-03-01T00:11:51;8.33;;;7.43;;
38023;SDS011;23834;48.080;11.682;2023-03-01T00:14:16;8.20;;;6.83;;
38023;SDS011;23834;48.080;11.682;2023-03-01T00:16:42;7.63;;;6.33;;
38023;SDS011;23834;48.080;11.682;2023-03-01T00:19:12;7.30;;;6.60;;
38023;SDS011;23834;48.080;11.682;2023-03-01T00:21:37;8.77;;;7.97;;
38023;SDS011;23834;48.080;11.682;2023-03-01T00:24:03;8.00;;;7.30;;
38023;SDS011;23834;48.080;11.682;2023-03-01T00:26:28;7.70;;;7.00;;
38023;SDS011;23834;48.080;11.682;2023-03-01T00:28:53;8.13;;;7.43;;
38023;SDS011;23834;48.080;11.682;2023-03-01T00:31:23;8.07;;;7.27;;
38023;SDS011;23834;48.080;11.682;2023-03-01T00:33:51;7.17;;;6.47;;
38023;SDS011;23834;48.080;11.682;2023-03-01T00:36:17;8.00;;;7.20;;
38023;SDS011;23834;48.080;11.682;2023-03-01T00:38:43;8.10;;;7.30;;
38023;SDS011;23834;48.080;11.682;2023-03-01T00:41:09;7.53;;;6.77;;
38023;SDS011;23834;48.080;11.682;2023-03-01T00:43:35;8.07;;;7.23;;
38023;SDS011;23834;48.080;11.682;2023-03-01T00:46:05;7.50;;;6.80;;
38023;SDS011;23834;48.080;11.682;2023-03-01T00:48:31;7.67;;;6.97;;
38023;SDS011;23834;48.080;11.682;2023-03-01T00:50:56;7.40;;;6.30;;
38023;SDS011;23834;48.080;11.682;2023-03-01T00:53:21;7.83;;;7.03;;
38023;SDS011;23834;48.080;11.682;2023-03-01T00:55:47;8.13;;;7.43;;
38023;SDS011;23834;48.080;11.682;2023-03-01T00:58:12;8.17;;;7.23;;
38023;SDS011;23834;48.080;11.682;2023-03-01T01:00:37;9.33;;;7.40;;
38023;SDS011;23834;48.080;11.682;2023-03-01T01:03:02;8.13;;;7.37;;
38023;SDS011;23834;48.080;11.682;2023-03-01T01:05:27;7.60;;;6.90;;
38023;SDS011;23834;48.080;11.682;2023-03-01T01:07:52;8.63;;;7.27;;
38023;SDS011;23834;48.080;11.682;2023-03-01T01:10:18;7.57;;;6.87;;
38023;SDS011;23834;48.080;11.682;2023-03-01T01:12:46;8.10;;;7.30;;
38023;SDS011;23834;48.080;11.682;2023-03-01T01:15:11;7.80;;;7.10;;
38023;SDS011;23834;48.080;11.682;2023-03-01T01:17:39;8.30;;;7.50;;
38023;SDS011;23834;48.080;11.682;2023-03-01T01:20:04;7.40;;;6.70;;
38023;SDS011;23834;48.080;11.682;2023-03-01T01:22:29;7.23;;;6.53;;
38023;SDS011;23834;48.080;11.682;2023-03-01T01:24:55;7.80;;;7.00;;
38023;SDS011;23834;48.080;11.682;2023-03-01T01:27:20;8.43;;;7.53;;
38023;SDS011;23834;48.080;11.682;2023-03-01T01:29:45;7.47;;;6.63;;
38023;SDS011;23834;48.080;11.682;2023-03-01T01:32:10;8.87;;;7.90;;
38023;SDS011;23834;48.080;11.682;2023-03-01T01:34:35;7.77;;;6.97;;
38023;SDS011;23834;48.080;11.682;2023-03-01T01:37:00;8.13;;;7.33;;
38023;SDS011;23834;48.080;11.682;2023-03-01T01:39:27;7.67;;;7.00;;
38023;SDS011;23834;48.080;11.682;2023-03-01T01:41:52;8.13;;;7.27;;
38023;SDS011;23834;48.080;11.682;2023-03-01T01:46:53;8.10;;;7.20;;
38023;SDS011;23834;48.080;11.682;2023-03-01T01:49:27;7.47;;;6.87;;
38023;SDS011;23834;48.080;11.682;2023-03-01T01:52:00;7.93;;;6.60;;
38023;SDS011;23834;48.080;11.682;2023-03-01T01:54:28;8.37;;;7.60;;
38023;SDS011;23834;48.080;11.682;2023-03-01T01:56:59;8.23;;;7.40;;
38023;SDS011;23834;48.080;11.682;2023-03-01T01:59:25;7.83;;;7.07;;
38023;SDS011;23834;48.080;11.682;2023-03-01T02:01:53;8.23;;;7.33;;
38023;SDS011;23834;48.080;11.682;2023-03-01T02:04:18;8.17;;;6.83;;
38023;SDS011;23834;48.080;11.682;2023-03-01T02:07:07;8.43;;;7.63;;
38023;SDS011;23834;48.080;11.682;2023-03-01T02:09:34;7.73;;;6.97;;
38023;SDS011;23834;48.080;11.682;2023-03-01T02:11:59;7.90;;;7.10;;
38023;SDS011;23834;48.080;11.682;2023-03-01T02:14:24;8.13;;;7.33;;
38023;SDS011;23834;48.080;11.682;2023-03-01T02:16:51;7.53;;;6.83;;
38023;SDS011;23834;48.080;11.682;2023-03-01T02:19:20;8.43;;;7.63;;
38023;SDS011;23834;48.080;11.682;2023-03-01T02:22:02;8.07;;;7.27;;
38023;SDS011;23834;48.080;11.682;2023-03-01T02:24:34;7.90;;;7.10;;
38023;SDS011;23834;48.080;11.682;2023-03-01T02:27:00;7.53;;;6.93;;
38023;SDS011;23834;48.080;11.682;2023-03-01T02:29:25;8.70;;;7.90;;
38023;SDS011;23834;48.080;11.682;2023-03-01T02:31:52;8.07;;;7.27;;
38023;SDS011;23834;48.080;11.682;2023-03-01T02:34:19;7.47;;;6.77;;
38023;SDS011;23834;48.080;11.682;2023-03-01T02:37:02;8.57;;;6.70;;
38023;SDS011;23834;48.080;11.682;2023-03-01T02:39:39;7.60;;;6.90;;
38023;SDS011;23834;48.080;11.682;2023-03-01T02:42:07;8.20;;;6.97;;
38023;SDS011;23834;48.080;11.682;2023-03-01T02:44:34;8.83;;;7.10;;
38023;SDS011;23834;48.080;11.682;2023-03-01T02:47:00;6.93;;;6.30;;
38023;SDS011;23834;48.080;11.682;2023-03-01T02:49:28;7.10;;;6.50;;
38023;SDS011;23834;48.080;11.682;2023-03-01T02:57:39;9.13;;;8.23;;
38023;SDS011;23834;48.080;11.682;2023-03-01T03:00:09;7.83;;;7.10;;
38023;SDS011;23834;48.080;11.682;2023-03-01T03:02:35;7.97;;;7.17;;
38023;SDS011;23834;48.080;11.682;2023-03-01T03:07:55;7.63;;;6.93;;
38023;SDS011;23834;48.080;11.682;2023-03-01T03:10:31;7.57;;;6.87;;
38023;SDS011;23834;48.080;11.682;2023-03-01T03:12:59;8.10;;;7.10;;
38023;SDS011;23834;48.080;11.682;2023-03-01T03:15:25;7.70;;;6.90;;
38023;SDS011;23834;48.080;11.682;2023-03-01T03:17:51;8.30;;;7.50;;
38023;SDS011;23834;48.080;11.682;2023-03-01T03:20:18;7.70;;;7.00;;
38023;SDS011;23834;48.080;11.682;2023-03-01T03:22:44;7.70;;;7.00;;
38023;SDS011;23834;48.080;11.682;2023-03-01T03:25:09;7.83;;;7.03;;
38023;SDS011;23834;48.080;11.682;2023-03-01T03:27:36;8.00;;;7.20;;
38023;SDS011;23834;48.080;11.682;2023-03-01T03:30:01;7.93;;;7.13;;
38023;SDS011;23834;48.080;11.682;2023-03-01T03:32:26;7.27;;;6.60;;
38023;SDS011;23834;48.080;11.682;2023-03-01T03:34:51;7.63;;;6.80;;
38023;SDS011;23834;48.080;11.682;2023-03-01T03:37:16;8.10;;;7.17;;
38023;SDS011;23834;48.080;11.682;2023-03-01T03:40:00;7.47;;;6.73;;
38023;SDS011;23834;48.080;11.682;2023-03-01T03:42:25;7.13;;;6.43;;
38023;SDS011;23834;48.080;11.682;2023-03-01T03:44:50;7.63;;;6.93;;
38023;SDS011;23834;48.080;11.682;2023-03-01T03:47:16;7.50;;;6.80;;
38023;SDS011;23834;48.080;11.682;2023-03-01T03:49:41;8.50;;;7.67;;
38023;SDS011;23834;48.080;11.682;2023-03-01T03:52:06;8.47;;;7.60;;
38023;SDS011;23834;48.080;11.682;2023-03-01T03:54:38;8.77;;;7.50;;
38023;SDS011;23834;48.080;11.682;2023-03-01T03:57:03;8.23;;;7.20;;
38023;SDS011;23834;48.080;11.682;2023-03-01T03:59:28;7.87;;;7.07;;
38023;SDS011;23834;48.080;11.682;2023-03-01T04:01:55;6.97;;;6.17;;
38023;SDS011;23834;48.080;11.682;2023-03-01T04:04:20;7.57;;;6.90;;
38023;SDS011;23834;48.080;11.682;2023-03-01T04:06:45;8.00;;;7.30;;
38023;SDS011;23834;48.080;11.682;2023-03-01T04:09:10;7.33;;;6.60;;
38023;SDS011;23834;48.080;11.682;2023-03-01T04:11:36;8.83;;;7.07;;
38023;SDS011;23834;48.080;11.682;2023-03-01T04:14:02;7.50;;;6.80;;
38023;SDS011;23834;48.080;11.682;2023-03-01T04:16:29;8.57;;;7.10;;
38023;SDS011;23834;48.080;11.682;2023-03-01T04:18:54;7.43;;;6.73;;
38023;SDS011;23834;48.080;11.682;2023-03-01T04:21:20;7.80;;;7.00;;
38023;SDS011;23834;48.080;11.682;2023-03-01T04:23:45;8.67;;;7.57;;
38023;SDS011;23834;48.080;11.682;2023-03-01T04:26:10;7.60;;;6.83;;
38023;SDS011;23834;48.080;11.682;2023-03-01T04:28:37;7.10;;;6.40;;
38023;SDS011;23834;48.080;11.682;2023-03-01T04:31:04;7.53;;;6.83;;
38023;SDS011;23834;48.080;11.682;2023-03-01T04:33:38;9.50;;;6.53;;
38023;SDS011;23834;48.080;11.682;2023-03-01T04:36:03;8.40;;;7.63;;
38023;SDS011;23834;48.080;11.682;2023-03-01T04:38:30;7.73;;;6.90;;
38023;SDS011;23834;48.080;11.682;2023-03-01T04:40:55;9.97;;;7.10;;
38023;SDS011;23834;48.080;11.682;2023-03-01T04:43:20;9.17;;;7.30;;
38023;SDS011;23834;48.080;11.682;2023-03-01T04:45:46;8.27;;;7.57;;
38023;SDS011;23834;48.080;11.682;2023-03-01T04:48:11;7.30;;;6.60;;
38023;SDS011;23834;48.080;11.682;2023-03-01T04:50:36;8.20;;;7.50;;
38023;SDS011;23834;48.080;11.682;2023-03-01T04:53:02;8.70;;;7.80;;
38023;SDS011;23834;48.080;11.682;2023-03-01T04:55:27;8.10;;;7.20;;
38023;SDS011;23834;48.080;11.682;2023-03-01T04:57:53;8.30;;;7.50;;
38023;SDS011;23834;48.080;11.682;2023-03-01T05:00:19;7.73;;;7.03;;
38023;SDS011;23834;48.080;11.682;2023-03-01T05:02:51;8.40;;;7.60;;
38023;SDS011;23834;48.080;11.682;2023-03-01T05:05:24;8.20;;;7.40;;
38023;SDS011;23834;48.080;11.682;2023-03-01T05:07:54;7.50;;;6.73;;
38023;SDS011;23834;48.080;11.682;2023-03-01T05:10:20;8.20;;;7.23;;
38023;SDS011;23834;48.080;11.682;2023-03-01T05:12:45;8.17;;;7.27;;
38023;SDS011;23834;48.080;11.682;2023-03-01T05:15:11;7.53;;;6.83;;
38023;SDS011;23834;48.080;11.682;2023-03-01T05:17:36;7.53;;;6.90;;
38023;SDS011;23834;48.080;11.682;2023-03-01T05:20:01;7.93;;;7.23;;
38023;SDS011;23834;48.080;11.682;2023-03-01T05:22:31;8.07;;;7.30;;
38023;SDS011;23834;48.080;11.682;2023-03-01T05:24:57;7.97;;;7.17;;
38023;SDS011;23834;48.080;11.682;2023-03-01T05:27:22;7.77;;;7.07;;
38023;SDS011;23834;48.080;11.682;2023-03-01T05:29:47;8.03;;;7.20;;
38023;SDS011;23834;48.080;11.682;2023-03-01T05:32:12;7.50;;;6.80;;
38023;SDS011;23834;48.080;11.682;2023-03-01T05:34:40;8.40;;;7.63;;
38023;SDS011;23834;48.080;11.682;2023-03-01T05:37:05;8.87;;;8.00;;
38023;SDS011;23834;48.080;11.682;2023-03-01T05:39:32;7.43;;;6.73;;
38023;SDS011;23834;48.080;11.682;2023-03-01T05:41:58;8.03;;;7.27;;
38023;SDS011;23834;48.080;11.682;2023-03-01T05:44:24;8.80;;;8.00;;
38023;SDS011;23834;48.080;11.682;2023-03-01T05:46:50;8.20;;;7.43;;
38023;SDS011;23834;48.080;11.682;2023-03-01T05:49:15;8.23;;;7.40;;
38023;SDS011;23834;48.080;11.682;2023-03-01T05:51:42;8.00;;;7.20;;
38023;SDS011;23834;48.080;11.682;2023-03-01T05:54:08;8.90;;;7.50;;
38023;SDS011;23834;48.080;11.682;2023-03-01T05:56:33;8.00;;;7.20;;
38023;SDS011;23834;48.080;11.682;2023-03-01T05:58:59;8.60;;;7.70;;
38023;SDS011;23834;48.080;11.682;2023-03-01T06:01:24;9.17;;;8.10;;
38023;SDS011;23834;48.080;11.682;2023-03-01T06:03:50;8.60;;;7.80;;
38023;SDS011;23834;48.080;11.682;2023-03-01T06:06:15;9.77;;;8.10;;
38023;SDS011;23834;48.080;11.682;2023-03-01T06:08:40;9.00;;;8.10;;
38023;SDS011;23834;48.080;11.682;2023-03-01T06:11:05;8.23;;;7.50;;
38023;SDS011;23834;48.080;11.682;2023-03-01T06:13:32;9.13;;;8.23;;
38023;SDS011;23834;48.080;11.682;2023-03-01T06:15:57;8.37;;;7.67;;
38023;SDS011;23834;48.080;11.682;2023-03-01T06:18:22;8.60;;;7.57;;
38023;SDS011;23834;48.080;11.682;2023-03-01T06:20:52;8.63;;;7.73;;
38023;SDS011;23834;48.080;11.682;2023-03-01T06:23:17;8.90;;;8.00;;
38023;SDS011;23834;48.080;11.682;2023-03-01T06:25:42;8.43;;;7.73;;
38023;SDS011;23834;48.080;11.682;2023-03-01T06:28:07;9.00;;;8.13;;
38023;SDS011;23834;48.080;11.682;2023-03-01T06:30:33;9.30;;;8.40;;
38023;SDS011;23834;48.080;11.682;2023-03-01T06:32:58;10.20;;;8.33;;
38023;SDS011;23834;48.080;11.682;2023-03-01T06:35:26;8.97;;;8.07;;
38023;SDS011;23834;48.080;11.682;2023-03-01T06:37:54;8.40;;;7.60;;
38023;SDS011;23834;48.080;11.682;2023-03-01T06:40:20;8.97;;;8.10;;
38023;SDS011;23834;48.080;11.682;2023-03-01T06:42:47;8.50;;;7.70;;
38023;SDS011;23834;48.080;11.682;2023-03-01T06:45:13;9.60;;;8.70;;
38023;SDS011;23834;48.080;11.682;2023-03-01T06:47:39;9.03;;;7.70;;
38023;SDS011;23834;48.080;11.682;2023-03-01T06:50:04;8.77;;;7.87;;
38023;SDS011;23834;48.080;11.682;2023-03-01T06:52:29;8.60;;;7.80;;
38023;SDS011;23834;48.080;11.682;2023-03-01T06:54:55;8.80;;;7.80;;
38023;SDS011;23834;48.080;11.682;2023-03-01T06:57:20;9.13;;;8.23;;
38023;SDS011;23834;48.080;11.682;2023-03-01T06:59:46;9.73;;;8.07;;
38023;SDS011;23834;48.080;11.682;2023-03-01T07:02:11;8.43;;;7.60;;
38023;SDS011;23834;48.080;11.682;2023-03-01T07:04:37;9.17;;;7.80;;
38023;SDS011;23834;48.080;11.682;2023-03-01T07:07:02;8.83;;;7.93;;
38023;SDS011;23834;48.080;11.682;2023-03-01T07:09:27;9.20;;;8.03;;
38023;SDS011;23834;48.080;11.682;2023-03-01T07:11:52;9.10;;;8.20;;
38023;SDS011;23834;48.080;11.682;2023-03-01T07:14:18;9.50;;;8.60;;
38023;SDS011;23834;48.080;11.682;2023-03-01T07:16:44;10.67;;;8.20;;
38023;SDS011;23834;48.080;11.682;2023-03-01T07:19:09;11.10;;;8.57;;
38023;SDS011;23834;48.080;11.682;2023-03-01T07:21:35;8.47;;;7.77;;
38023;SDS011;23834;48.080;11.682;2023-03-01T07:24:00;9.90;;;8.90;;
38023;SDS011;23834;48.080;11.682;2023-03-01T07:26:25;9.07;;;8.23;;
38023;SDS011;23834;48.080;11.682;2023-03-01T07:28:51;9.40;;;8.40;;
38023;SDS011;23834;48.080;11.682;2023-03-01T07:31:16;10.33;;;9.23;;
38023;SDS011;23834;48.080;11.682;2023-03-01T07:33:42;9.93;;;8.93;;
38023;SDS011;23834;48.080;11.682;2023-03-01T07:36:07;9.70;;;8.80;;
38023;SDS011;23834;48.080;11.682;2023-03-01T07:38:32;8.87;;;8.07;;
38023;SDS011;23834;48.080;11.682;2023-03-01T07:41:02;9.43;;;8.53;;
38023;SDS011;23834;48.080;11.682;2023-03-01T07:43:28;10.27;;;8.30;;
38023;SDS011;23834;48.080;11.682;2023-03-01T07:45:53;9.53;;;8.60;;
38023;SDS011;23834;48.080;11.682;2023-03-01T07:48:19;8.63;;;7.73;;
38023;SDS011;23834;48.080;11.682;2023-03-01T07:50:45;8.47;;;7.57;;
38023;SDS011;23834;48.080;11.682;2023-03-01T07:53:10;8.63;;;7.83;;
38023;SDS011;23834;48.080;11.682;2023-03-01T07:55:35;8.63;;;7.83;;
38023;SDS011;23834;48.080;11.682;2023-03-01T07:58:01;9.97;;;8.20;;
38023;SDS011;23834;48.080;11.682;2023-03-01T08:00:26;8.20;;;7.40;;
38023;SDS011;23834;48.080;11.682;2023-03-01T08:02:51;11.70;;;8.10;;
38023;SDS011;23834;48.080;11.682;2023-03-01T08:05:17;8.27;;;7.17;;
38023;SDS011;23834;48.080;11.682;2023-03-01T08:07:43;9.37;;;8.00;;
38023;SDS011;23834;48.080;11.682;2023-03-01T08:10:08;8.17;;;7.30;;
38023;SDS011;23834;48.080;11.682;2023-03-01T08:12:34;8.23;;;7.53;;
38023;SDS011;23834;48.080;11.682;2023-03-01T08:14:59;8.50;;;7.60;;
38023;SDS011;23834;48.080;11.682;2023-03-01T08:17:24;8.53;;;7.60;;
38023;SDS011;23834;48.080;11.682;2023-03-01T08:19:49;8.67;;;7.60;;
38023;SDS011;23834;48.080;11.682;2023-03-01T08:22:15;9.70;;;7.63;;
38023;SDS011;23834;48.080;11.682;2023-03-01T08:24:40;8.40;;;7.60;;
38023;SDS011;23834;48.080;11.682;2023-03-01T08:27:05;8.43;;;7.60;;
38023;SDS011;23834;48.080;11.682;2023-03-01T08:29:31;8.73;;;7.93;;
38023;SDS011;23834;48.080;11.682;2023-03-01T08:31:56;9.80;;;8.70;;
38023;SDS011;23834;48.080;11.682;2023-03-01T08:34:21;8.83;;;7.97;;
38023;SDS011;23834;48.080;11.682;2023-03-01T08:36:48;10.17;;;7.97;;
38023;SDS011;23834;48.080;11.682;2023-03-01T08:39:16;10.23;;;9.17;;
38023;SDS011;23834;48.080;11.682;2023-03-01T08:41:43;10.17;;;8.77;;
38023;SDS011;23834;48.080;11.682;2023-03-01T08:44:09;8.67;;;7.87;;
38023;SDS011;23834;48.080;11.682;2023-03-01T08:46:36;8.97;;;8.07;;
38023;SDS011;23834;48.080;11.682;2023-03-01T08:49:04;8.80;;;8.00;;
38023;SDS011;23834;48.080;11.682;2023-03-01T08:51:30;9.50;;;8.53;;
38023;SDS011;23834;48.080;11.682;2023-03-01T08:53:57;8.97;;;8.07;;
38023;SDS011;23834;48.080;11.682;2023-03-01T08:56:22;10.50;;;8.40;;
38023;SDS011;23834;48.080;11.682;2023-03-01T08:58:48;9.00;;;8.20;;
38023;SDS011;23834;48.080;11.682;2023-03-01T09:01:14;8.83;;;8.03;;
38023;SDS011;23834;48.080;11.682;2023-03-01T09:03:40;10.57;;;8.77;;
38023;SDS011;23834;48.080;11.682;2023-03-01T09:06:06;10.27;;;9.17;;
38023;SDS011;23834;48.080;11.682;2023-03-01T09:08:34;9.10;;;8.20;;
38023;SDS011;23834;48.080;11.682;2023-03-01T09:11:01;9.30;;;8.37;;
38023;SDS011;23834;48.080;11.682;2023-03-01T09:13:27;9.50;;;8.60;;
38023;SDS011;23834;48.080;11.682;2023-03-01T09:15:53;9.37;;;8.47;;
38023;SDS011;23834;48.080;11.682;2023-03-01T09:18:18;9.93;;;8.63;;
38023;SDS011;23834;48.080;11.682;2023-03-01T09:20:43;10.20;;;9.10;;
38023;SDS011;23834;48.080;11.682;2023-03-01T09:23:08;10.03;;;9.03;;
38023;SDS011;23834;48.080;11.682;2023-03-01T09:25:34;9.53;;;8.63;;
38023;SDS011;23834;48.080;11.682;2023-03-01T09:27:59;10.60;;;8.30;;
38023;SDS011;23834;48.080;11.682;2023-03-01T09:30:24;10.77;;;8.63;;
38023;SDS011;23834;48.080;11.682;2023-03-01T09:32:49;10.10;;;8.73;;
38023;SDS011;23834;48.080;11.682;2023-03-01T09:35:14;10.13;;;9.00;;
38023;SDS011;23834;48.080;11.682;2023-03-01T09:37:40;9.70;;;8.63;;
38023;SDS011;23834;48.080;11.682;2023-03-01T09:40:12;9.97;;;8.97;;
38023;SDS011;23834;48.080;11.682;2023-03-01T09:42:45;9.00;;;8.20;;
38023;SDS011;23834;48.080;11.682;2023-03-01T09:45:11;11.77;;;9.10;;
38023;SDS011;23834;48.080;11.682;2023-03-01T09:47:39;10.20;;;9.20;;
38023;SDS011;23834;48.080;11.682;2023-03-01T09:50:09;10.13;;;9.13;;
38023;SDS011;23834;48.080;11.682;2023-03-01T09:55:04;9.00;;;8.20;;
38023;SDS011;23834;48.080;11.682;2023-03-01T09:57:36;10.00;;;8.60;;
38023;SDS011;23834;48.080;11.682;2023-03-01T10:00:08;9.73;;;7.93;;
38023;SDS011;23834;48.080;11.682;2023-03-01T10:02:42;8.00;;;7.20;;
38023;SDS011;23834;48.080;11.682;2023-03-01T10:07:45;9.17;;;8.20;;
38023;SDS011;23834;48.080;11.682;2023-03-01T10:10:36;9.57;;;8.27;;
38023;SDS011;23834;48.080;11.682;2023-03-01T10:13:00;10.07;;;8.43;;
38023;SDS011;23834;48.080;11.682;2023-03-01T10:15:34;8.93;;;7.87;;
38023;SDS011;23834;48.080;11.682;2023-03-01T10:18:22;8.83;;;7.93;;
38023;SDS011;23834;48.080;11.682;2023-03-01T10:20:47;9.10;;;7.90;;
38023;SDS011;23834;48.080;11.682;2023-03-01T10:23:13;10.30;;;7.17;;
38023;SDS011;23834;48.080;11.682;2023-03-01T10:30:40;9.40;;;8.40;;
38023;SDS011;23834;48.080;11.682;2023-03-01T10:33:19;8.50;;;7.60;;
38023;SDS011;23834;48.080;11.682;2023-03-01T10:35:45;8.93;;;8.03;;
38023;SDS011;23834;48.080;11.682;2023-03-01T10:38:11;9.07;;;8.03;;
38023;SDS011;23834;48.080;11.682;2023-03-01T10:40:54;9.40;;;8.43;;
38023;SDS011;23834;48.080;11.682;2023-03-01T10:43:22;9.43;;;8.43;;
38023;SDS011;23834;48.080;11.682;2023-03-01T10:45:47;8.93;;;8.03;;
38023;SDS011;23834;48.080;11.682;2023-03-01T10:48:17;9.27;;;8.23;;
38023;SDS011;23834;48.080;11.682;2023-03-01T10:50:44;8.23;;;7.43;;
38023;SDS011;23834;48.080;11.682;2023-03-01T10:53:20;8.20;;;7.50;;
38023;SDS011;23834;48.080;11.682;2023-03-01T10:55:46;7.67;;;6.97;;
38023;SDS011;23834;48.080;11.682;2023-03-01T11:00:46;8.03;;;7.23;;
38023;SDS011;23834;48.080;11.682;2023-03-01T11:03:13;9.10;;;7.67;;
38023;SDS011;23834;48.080;11.682;2023-03-01T11:06:02;8.47;;;7.60;;
38023;SDS011;23834;48.080;11.682;2023-03-01T11:08:33;9.83;;;8.03;;
38023;SDS011;23834;48.080;11.682;2023-03-01T11:11:06;8.07;;;7.37;;
38023;SDS011;23834;48.080;11.682;2023-03-01T11:13:31;8.73;;;7.87;;
38023;SDS011;23834;48.080;11.682;2023-03-01T11:16:07;8.60;;;7.70;;
38023;SDS011;23834;48.080;11.682;2023-03-01T11:18:34;7.90;;;7.07;;
38023;SDS011;23834;48.080;11.682;2023-03-01T11:21:00;10.93;;;7.63;;
38023;SDS011;23834;48.080;11.682;2023-03-01T11:23:27;9.97;;;7.57;;
38023;SDS011;23834;48.080;11.682;2023-03-01T11:25:59;9.03;;;8.20;;
38023;SDS011;23834;48.080;11.682;2023-03-01T11:28:25;9.30;;;8.40;;
38023;SDS011;23834;48.080;11.682;2023-03-01T11:30:53;8.77;;;7.97;;
38023;SDS011;23834;48.080;11.682;2023-03-01T11:38:34;9.33;;;7.63;;
38023;SDS011;23834;48.080;11.682;2023-03-01T11:41:01;9.60;;;8.27;;
38023;SDS011;23834;48.080;11.682;2023-03-01T11:48:44;8.90;;;8.00;;
38023;SDS011;23834;48.080;11.682;2023-03-01T11:51:17;8.23;;;7.40;;
38023;SDS011;23834;48.080;11.682;2023-03-01T11:56:16;8.60;;;7.80;;
38023;SDS011;23834;48.080;11.682;2023-03-01T12:24:56;8.33;;;7.53;;
38023;SDS011;23834;48.080;11.682;2023-03-01T12:37:29;8.00;;;7.30;;
38023;SDS011;23834;48.080;11.682;2023-03-01T12:48:13;7.70;;;6.90;;
38023;SDS011;23834;48.080;11.682;2023-03-01T12:50:42;8.00;;;7.20;;
38023;SDS011;23834;48.080;11.682;2023-03-01T12:53:16;8.13;;;7.33;;
38023;SDS011;23834;48.080;11.682;2023-03-01T12:55:44;8.40;;;7.60;;
38023;SDS011;23834;48.080;11.682;2023-03-01T12:58:17;7.87;;;7.07;;
38023;SDS011;23834;48.080;11.682;2023-03-01T13:00:53;8.80;;;7.67;;
38023;SDS011;23834;48.080;11.682;2023-03-01T13:03:26;8.10;;;7.30;;
38023;SDS011;23834;48.080;11.682;2023-03-01T13:08:40;8.63;;;7.80;;
38023;SDS011;23834;48.080;11.682;2023-03-01T13:11:11;10.43;;;7.90;;
38023;SDS011;23834;48.080;11.682;2023-03-01T13:13:39;8.17;;;7.47;;
38023;SDS011;23834;48.080;11.682;2023-03-01T13:16:21;8.30;;;7.50;;
38023;SDS011;23834;48.080;11.682;2023-03-01T13:18:47;8.60;;;7.70;;
38023;SDS011;23834;48.080;11.682;2023-03-01T13:21:13;9.17;;;8.37;;
38023;SDS011;23834;48.080;11.682;2023-03-01T13:23:54;8.73;;;7.93;;
38023;SDS011;23834;48.080;11.682;2023-03-01T13:26:19;8.53;;;7.73;;
38023;SDS011;23834;48.080;11.682;2023-03-01T13:33:48;7.63;;;6.77;;
38023;SDS011;23834;48.080;11.682;2023-03-01T13:38:55;8.17;;;7.37;;
38023;SDS011;23834;48.080;11.682;2023-03-01T13:46:38;7.90;;;7.10;;
38023;SDS011;23834;48.080;11.682;2023-03-01T13:49:03;8.33;;;7.43;;
38023;SDS011;23834;48.080;11.682;2023-03-01T13:51:28;8.00;;;7.20;;
38023;SDS011;23834;48.080;11.682;2023-03-01T13:53:53;9.30;;;7.43;;
38023;SDS011;23834;48.080;11.682;2023-03-01T13:56:27;8.57;;;7.77;;
38023;SDS011;23834;48.080;11.682;2023-03-01T14:01:25;7.83;;;7.03;;
38023;SDS011;23834;48.080;11.682;2023-03-01T14:03:51;7.50;;;6.90;;
38023;SDS011;23834;48.080;11.682;2023-03-01T14:06:18;7.90;;;7.20;;
38023;SDS011;23834;48.080;11.682;2023-03-01T14:08:44;7.57;;;6.80;;
38023;SDS011;23834;48.080;11.682;2023-03-01T14:16:12;7.60;;;6.90;;
38023;SDS011;23834;48.080;11.682;2023-03-01T14:18:46;8.17;;;6.80;;
38023;SDS011;23834;48.080;11.682;2023-03-01T14:21:16;7.23;;;6.53;;
38023;SDS011;23834;48.080;11.682;2023-03-01T14:23:42;7.90;;;7.13;;
38023;SDS011;23834;48.080;11.682;2023-03-01T14:26:07;8.17;;;7.27;;
38023;SDS011;23834;48.080;11.682;2023-03-01T14:28:33;9.47;;;7.37;;
38023;SDS011;23834;48.080;11.682;2023-03-01T14:31:02;7.70;;;7.00;;
38023;SDS011;23834;48.080;11.682;2023-03-01T14:35:55;7.57;;;6.80;;
38023;SDS011;23834;48.080;11.682;2023-03-01T14:38:21;7.90;;;7.10;;
38023;SDS011;23834;48.080;11.682;2023-03-01T14:40:47;9.53;;;8.23;;
38023;SDS011;23834;48.080;11.682;2023-03-01T14:43:16;8.07;;;7.23;;
38023;SDS011;23834;48.080;11.682;2023-03-01T14:45:46;9.00;;;8.03;;
38023;SDS011;23834;48.080;11.682;2023-03-01T14:48:12;9.10;;;8.17;;
38023;SDS011;23834;48.080;11.682;2023-03-01T14:50:40;8.90;;;8.00;;
38023;SDS011;23834;48.080;11.682;2023-03-01T14:53:06;8.90;;;8.00;;
38023;SDS011;23834;48.080;11.682;2023-03-01T14:55:33;8.60;;;7.80;;
38023;SDS011;23834;48.080;11.682;2023-03-01T14:57:59;8.73;;;7.90;;
38023;SDS011;23834;48.080;11.682;2023-03-01T15:00:27;8.00;;;7.30;;
38023;SDS011;23834;48.080;11.682;2023-03-01T15:02:55;8.47;;;7.67;;
38023;SDS011;23834;48.080;11.682;2023-03-01T15:05:25;8.17;;;7.47;;
38023;SDS011;23834;48.080;11.682;2023-03-01T15:07:52;8.00;;;7.20;;
38023;SDS011;23834;48.080;11.682;2023-03-01T15:10:25;8.10;;;7.33;;
38023;SDS011;23834;48.080;11.682;2023-03-01T15:12:50;8.23;;;7.43;;
38023;SDS011;23834;48.080;11.682;2023-03-01T15:15:31;9.20;;;8.30;;
38023;SDS011;23834;48.080;11.682;2023-03-01T15:18:00;9.93;;;8.30;;
38023;SDS011;23834;48.080;11.682;2023-03-01T15:20:27;8.93;;;8.03;;
38023;SDS011;23834;48.080;11.682;2023-03-01T15:22:54;8.67;;;7.77;;
38023;SDS011;23834;48.080;11.682;2023-03-01T15:25:24;9.70;;;8.30;;
38023;SDS011;23834;48.080;11.682;2023-03-01T15:27:50;9.03;;;8.23;;
38023;SDS011;23834;48.080;11.682;2023-03-01T15:30:23;8.47;;;7.57;;
38023;SDS011;23834;48.080;11.682;2023-03-01T15:33:15;11.57;;;7.93;;
38023;SDS011;23834;48.080;11.682;2023-03-01T15:35:44;8.90;;;8.00;;
38023;SDS011;23834;48.080;11.682;2023-03-01T15:38:25;8.50;;;7.33;;
38023;SDS011;23834;48.080;11.682;2023-03-01T15:40:51;7.90;;;7.10;;
38023;SDS011;23834;48.080;11.682;2023-03-01T15:46:01;11.23;;;8.43;;
38023;SDS011;23834;48.080;11.682;2023-03-01T15:48:26;8.23;;;7.33;;
38023;SDS011;23834;48.080;11.682;2023-03-01T15:50:55;8.73;;;7.90;;
38023;SDS011;23834;48.080;11.682;2023-03-01T15:53:21;8.33;;;7.53;;
38023;SDS011;23834;48.080;11.682;2023-03-01T15:55:47;8.87;;;7.97;;
38023;SDS011;23834;48.080;11.682;2023-03-01T15:58:24;7.40;;;6.70;;
38023;SDS011;23834;48.080;11.682;2023-03-01T16:00:49;9.30;;;7.80;;
38023;SDS011;23834;48.080;11.682;2023-03-01T16:03:20;9.67;;;8.00;;
38023;SDS011;23834;48.080;11.682;2023-03-01T16:05:47;8.30;;;7.50;;
38023;SDS011;23834;48.080;11.682;2023-03-01T16:08:12;8.43;;;7.60;;
38023;SDS011;23834;48.080;11.682;2023-03-01T16:10:37;8.73;;;7.67;;
38023;SDS011;23834;48.080;11.682;2023-03-01T16:13:03;8.73;;;7.83;;
38023;SDS011;23834;48.080;11.682;2023-03-01T16:15:30;9.00;;;8.03;;
38023;SDS011;23834;48.080;11.682;2023-03-01T16:17:56;8.00;;;7.27;;
38023;SDS011;23834;48.080;11.682;2023-03-01T16:20:23;7.87;;;7.10;;
38023;SDS011;23834;48.080;11.682;2023-03-01T16:22:48;8.00;;;7.20;;
38023;SDS011;23834;48.080;11.682;2023-03-01T16:25:15;8.90;;;7.20;;